No particular awareness of the weather is required.    There are no Weather-warnings


Meteo18 Weather Cam more information Meteo18 Weather Cam


Thunder radar more information blitzortung!


Rain radar more information rain snow radar


Visit our other weather sites:

Template documentation
and downloads

And another site



Weather Underground History page Text

Daily Summary for October 27, 2017 Units:  Metric    English   Both
« Previous Day
Next Day »
Daily Weekly Monthly Yearly Custom
  High: Low: Average:
Temperature: -17.8 °C -13 °C -11.1 °C
Dew Point: -17.8 °C -14.1 °C -11.8 °C
Humidity: Humidity % 84 % 92 %
Wind Speed: 0 km/h 0 km/h 3.7 km/h
Wind Gust: 0 km/h - -
Wind:- - SSW
Pressure: 0 hPa 34750.5 hPa -
Precipitation: 7.62 mm    
Historical Graphs
 
 
Tabular Data for October 27, 2017
Time Temperature Dew Point Pressure Wind Wind Speed Wind Gust Humidity Rainfall Rate (Hourly)
-17.8 °C -17.8 °C 0 hPa Calm     Humidity % 0 mm
00:02 -9.7 °C -10.5 °C 34760.7 hPa NNW 5.1 km/h 10.3 km/h 91 % 0 mm
00:12 -9.6 °C -10.4 °C 34760.7 hPa NW 5.1 km/h 10.3 km/h 90 % 0 mm
00:17 -9.6 °C -10.4 °C 34760.7 hPa NW 5.1 km/h 10.3 km/h 90 % 0 mm
00:22 -9.6 °C -10.4 °C 34750.5 hPa NW 5.1 km/h 10.3 km/h 90 % 0 mm
00:32 -9.6 °C -10.4 °C 34750.5 hPa WNW 5.1 km/h 12.9 km/h 90 % 0 mm
00:37 -9.6 °C -10.4 °C 34750.5 hPa WNW 2.6 km/h 12.9 km/h 91 % 0 mm
00:42 -9.6 °C -10.4 °C 34750.5 hPa NW 7.7 km/h 12.9 km/h 91 % 0 mm
00:52 -9.6 °C -10.3 °C 34750.5 hPa WNW 2.6 km/h 10.3 km/h 92 % 0 mm
00:57 -9.7 °C -10.4 °C 34750.5 hPa Calm   7.7 km/h 92 % 0 mm
01:02 -9.7 °C -10.4 °C 34760.7 hPa Calm   7.7 km/h 92 % 0 mm
01:07 -9.8 °C -10.4 °C 34760.7 hPa WNW 2.6 km/h 7.7 km/h 93 % 0 mm
01:12 -9.8 °C -10.4 °C 34750.5 hPa NW 5.1 km/h 7.7 km/h 93 % 0 mm
01:17 -9.7 °C -10.3 °C 34760.7 hPa Calm   7.7 km/h 93 % 0 mm
01:22 -9.7 °C -10.2 °C 34750.5 hPa WNW 2.6 km/h 7.7 km/h 94 % 0 mm
01:27 -9.8 °C -10.4 °C 34750.5 hPa Calm   10.3 km/h 93 % 0 mm
01:32 -9.9 °C -10.5 °C 34760.7 hPa Calm   10.3 km/h 93 % 0 mm
01:42 -9.9 °C -10.4 °C 34760.7 hPa Calm   2.6 km/h 94 % 0 mm
01:47 -9.9 °C -10.5 °C 34760.7 hPa Calm   2.6 km/h 94 % 0 mm
01:52 -10.1 °C -10.6 °C 34760.7 hPa Calm   2.6 km/h 94 % 0 mm
01:57 -10.1 °C -10.6 °C 34760.7 hPa Calm   2.6 km/h 94 % 0 mm
02:02 -10.1 °C -10.5 °C 34760.7 hPa NW 2.6 km/h 2.6 km/h 95 % 0 mm
02:07 -10.1 °C -10.5 °C 34760.7 hPa Calm   2.6 km/h 95 % 0 mm
02:12 -10.1 °C -10.6 °C 34760.7 hPa Calm   2.6 km/h 95 % 0 mm
02:17 -10.2 °C -10.6 °C 34760.7 hPa Calm   2.6 km/h 95 % 0 mm
02:22 -10.3 °C -10.8 °C 34760.7 hPa ENE 2.6 km/h 2.6 km/h 94 % 0 mm
02:27 -10.2 °C -10.7 °C 34760.7 hPa Calm   5.1 km/h 95 % 0 mm
02:32 -10.4 °C -10.9 °C 34760.7 hPa Calm   5.1 km/h 94 % 0 mm
02:37 -10.5 °C -10.9 °C 34760.7 hPa Calm   5.1 km/h 95 % 0 mm
02:42 -10.5 °C -10.9 °C 34760.7 hPa Calm   5.1 km/h 95 % 0 mm
02:47 -10.5 °C -10.9 °C 34760.7 hPa Calm   2.6 km/h 95 % 0 mm
02:52 -10.6 °C -11 °C 34760.7 hPa Calm   2.6 km/h 95 % 0 mm
02:57 -10.6 °C -11.1 °C 34774.2 hPa North 2.6 km/h 2.6 km/h 95 % 0 mm
03:02 -10.7 °C -11 °C 34760.7 hPa NNE 2.6 km/h 2.6 km/h 96 % 0 mm
03:07 -10.6 °C -10.9 °C 34774.2 hPa NNW 2.6 km/h 7.7 km/h 96 % 0 mm
03:12 -10.5 °C -10.8 °C 34774.2 hPa North 2.6 km/h 7.7 km/h 96 % 0 mm
03:22 -10.5 °C -10.8 °C 34774.2 hPa NNW 2.6 km/h 5.1 km/h 96 % 0 mm
03:27 -10.5 °C -10.8 °C 34774.2 hPa Calm   7.7 km/h 96 % 0 mm
03:32 -10.9 °C -11.4 °C 34774.2 hPa Calm   7.7 km/h 94 % 0 mm
03:37 -10.9 °C -11.4 °C 34774.2 hPa Calm   2.6 km/h 95 % 0 mm
03:42 -10.9 °C -11.3 °C 34774.2 hPa Calm   2.6 km/h 96 % 0 mm
03:47 -10.9 °C -11.3 °C 34774.2 hPa Calm   2.6 km/h 96 % 0 mm
03:52 -11 °C -11.3 °C 34774.2 hPa Calm   2.6 km/h 96 % 0 mm
04:02 -11.2 °C -11.6 °C 34774.2 hPa Calm   2.6 km/h 95 % 0 mm
04:07 -11.3 °C -11.8 °C 34774.2 hPa Calm   2.6 km/h 95 % 0 mm
04:12 -11.3 °C -11.7 °C 34774.2 hPa Calm   2.6 km/h 96 % 0 mm
04:17 -11.5 °C -11.9 °C 34774.2 hPa Calm   5.1 km/h 95 % 0 mm
04:22 -11.9 °C -12.6 °C 34774.2 hPa Calm   5.1 km/h 93 % 0 mm
04:27 -12.2 °C -12.7 °C 34774.2 hPa Calm   2.6 km/h 94 % 0 mm
04:32 -12.3 °C -12.6 °C 34784.4 hPa SSE 2.6 km/h 2.6 km/h 96 % 0 mm
04:37 -12.3 °C -12.8 °C 34784.4 hPa NE 5.1 km/h 5.1 km/h 95 % 0 mm
04:42 -12.3 °C -12.7 °C 34784.4 hPa Calm   5.1 km/h 96 % 0 mm
04:47 -12.3 °C -12.7 °C 34784.4 hPa Calm   7.7 km/h 96 % 0 mm
04:52 -12.3 °C -12.7 °C 34774.2 hPa Calm   7.7 km/h 96 % 0 mm
04:57 -12.2 °C -12.6 °C 34784.4 hPa Calm   7.7 km/h 96 % 0 mm
05:02 -12.2 °C -12.6 °C 34784.4 hPa Calm   7.7 km/h 96 % 0 mm
05:07 -12.3 °C -12.6 °C 34784.4 hPa Calm   5.1 km/h 96 % 0 mm
05:12 -12.2 °C -12.5 °C 34784.4 hPa North 2.6 km/h 5.1 km/h 96 % 0 mm
05:22 -11.9 °C -12.2 °C 34797.9 hPa NNW 2.6 km/h 5.1 km/h 97 % 0 mm
05:32 -11.8 °C -12.1 °C 34797.9 hPa North 5.1 km/h 7.7 km/h 97 % 0 mm
05:37 -11.7 °C -12 °C 34797.9 hPa NW 7.7 km/h 7.7 km/h 97 % 0 mm
05:42 -11.6 °C -11.9 °C 34797.9 hPa NNE 12.9 km/h 12.9 km/h 97 % 0 mm
05:47 -11.6 °C -11.8 °C 34797.9 hPa NNE 2.6 km/h 18.2 km/h 97 % 0 mm
05:52 -11.6 °C -11.9 °C 34797.9 hPa North 7.7 km/h 18.2 km/h 97 % 0 mm
06:02 -11.7 °C -12 °C 34797.9 hPa North 7.7 km/h 20.8 km/h 96 % 7.62 mm
06:07 -11.7 °C -12 °C 34797.9 hPa North 2.6 km/h 15.6 km/h 97 % 7.62 mm
06:12 -11.7 °C -12 °C 34808.1 hPa North 2.6 km/h 15.6 km/h 97 % 7.62 mm
06:17 -11.7 °C -11.9 °C 34808.1 hPa NNW 5.1 km/h 15.6 km/h 97 % 7.62 mm
06:22 -11.7 °C -11.9 °C 34808.1 hPa North 7.7 km/h 15.6 km/h 97 % 7.62 mm
06:27 -11.7 °C -11.9 °C 34808.1 hPa NNE 5.1 km/h 15.6 km/h 97 % 7.62 mm
06:32 -11.7 °C -11.9 °C 34808.1 hPa Calm   15.6 km/h 97 % 7.62 mm
06:42 -11.6 °C -11.9 °C 34808.1 hPa North 5.1 km/h 15.6 km/h 97 % 7.62 mm
06:47 -11.6 °C -11.9 °C 34808.1 hPa Calm   10.3 km/h 97 % 7.62 mm
06:52 -11.6 °C -11.9 °C 34818.2 hPa North 2.6 km/h 10.3 km/h 97 % 7.62 mm
06:57 -11.6 °C -11.9 °C 34818.2 hPa North 2.6 km/h 10.3 km/h 97 % 0 mm
07:02 -11.6 °C -11.9 °C 34818.2 hPa Calm   10.3 km/h 97 % 0 mm
07:07 -11.6 °C -11.8 °C 34818.2 hPa Calm   7.7 km/h 97 % 0 mm
07:12 -11.6 °C -11.8 °C 34818.2 hPa Calm   7.7 km/h 97 % 0 mm
07:17 -11.6 °C -11.8 °C 34818.2 hPa Calm   2.6 km/h 97 % 0 mm
07:22 -11.6 °C -11.9 °C 34818.2 hPa Calm   2.6 km/h 97 % 0 mm
07:32 -11.7 °C -11.9 °C 34818.2 hPa Calm     97 % 0 mm
07:42 -11.7 °C -12 °C 34818.2 hPa Calm     97 % 0 mm
07:47 -11.7 °C -12 °C 34831.8 hPa Calm     97 % 0 mm
07:57 -11.8 °C -12.1 °C 34831.8 hPa Calm   5.1 km/h 97 % 0 mm
08:02 -11.8 °C -12.1 °C 34831.8 hPa Calm   5.1 km/h 97 % 0 mm
08:12 -11.7 °C -12 °C 34841.9 hPa Calm   5.1 km/h 97 % 0 mm
08:17 -11.7 °C -12 °C 34841.9 hPa NNE 5.1 km/h 12.9 km/h 97 % 0 mm
08:22 -11.7 °C -12 °C 34841.9 hPa NNW 7.7 km/h 12.9 km/h 97 % 0 mm
08:32 -11.7 °C -12 °C 34841.9 hPa NNW 7.7 km/h 12.9 km/h 96 % 0 mm
08:42 -11.6 °C -11.9 °C 34841.9 hPa NNE 18.2 km/h 18.2 km/h 96 % 0 mm
08:47 -11.6 °C -11.9 °C 34852.1 hPa NNW 7.7 km/h 18.2 km/h 96 % 0 mm
08:52 -11.6 °C -12.1 °C 34852.1 hPa NW 2.6 km/h 18.2 km/h 95 % 0 mm
09:02 -11.6 °C -12 °C 34852.1 hPa NNW 2.6 km/h 25.9 km/h 95 % 0 mm
09:07 -11.6 °C -12 °C 34865.6 hPa NNW 10.3 km/h 15.6 km/h 95 % 0 mm
09:12 -11.6 °C -12 °C 34865.6 hPa West 2.6 km/h 15.6 km/h 95 % 0 mm
09:17 -11.5 °C -12 °C 34865.6 hPa NNW 5.1 km/h 18.2 km/h 94 % 0 mm
09:22 -11.5 °C -12 °C 34875.8 hPa North 7.7 km/h 18.2 km/h 94 % 0 mm
09:32 -11.4 °C -11.9 °C 34875.8 hPa NNW 5.1 km/h 18.2 km/h 94 % 0 mm
09:37 -11.4 °C -12 °C 34889.3 hPa North 5.1 km/h 18.2 km/h 93 % 0 mm
09:42 -11.4 °C -12 °C 34889.3 hPa North 12.9 km/h 18.2 km/h 93 % 0 mm
09:47 -11.3 °C -11.9 °C 34889.3 hPa NNE 5.1 km/h 12.9 km/h 93 % 0 mm
09:52 -11.3 °C -11.9 °C 34889.3 hPa NW 2.6 km/h 12.9 km/h 93 % 0 mm
10:02 -11.3 °C -11.9 °C 34889.3 hPa Calm   12.9 km/h 93 % 0 mm
10:12 -11.3 °C -11.9 °C 34889.3 hPa North 2.6 km/h 10.3 km/h 93 % 0 mm
10:17 -11.2 °C -11.8 °C 34889.3 hPa Calm   10.3 km/h 93 % 0 mm
10:22 -11.2 °C -11.8 °C 34889.3 hPa WSW 2.6 km/h 10.3 km/h 93 % 0 mm
10:32 -11.2 °C -11.8 °C 34889.3 hPa WNW 2.6 km/h 5.1 km/h 93 % 0 mm
10:42 -11.2 °C -11.8 °C 34889.3 hPa Calm   5.1 km/h 93 % 0 mm
10:47 -11.1 °C -11.8 °C 34889.3 hPa West 2.6 km/h 5.1 km/h 92 % 0 mm
10:52 -11.1 °C -11.8 °C 34889.3 hPa WSW 2.6 km/h 5.1 km/h 92 % 0 mm
10:57 -11.1 °C -11.8 °C 34889.3 hPa Calm   5.1 km/h 92 % 0 mm
11:02 -11.1 °C -11.8 °C 34889.3 hPa West 2.6 km/h 5.1 km/h 92 % 0 mm
11:12 -11.1 °C -11.8 °C 34899.5 hPa Calm   5.1 km/h 92 % 0 mm
11:17 -11.1 °C -11.8 °C 34899.5 hPa WNW 2.6 km/h 5.1 km/h 92 % 0 mm
11:22 -11.1 °C -11.7 °C 34909.7 hPa Calm   5.1 km/h 93 % 0 mm
11:32 -10.9 °C -11.7 °C 34909.7 hPa NNW 10.3 km/h 10.3 km/h 92 % 0 mm
11:42 -10.9 °C -11.6 °C 34909.7 hPa WNW 2.6 km/h 10.3 km/h 92 % 0 mm
11:47 -10.8 °C -11.6 °C 34909.7 hPa Calm   12.9 km/h 92 % 0 mm
11:52 -10.8 °C -11.5 °C 34909.7 hPa NW 2.6 km/h 12.9 km/h 92 % 0 mm
11:57 -10.7 °C -11.4 °C 34923.2 hPa NNW 7.7 km/h 10.3 km/h 92 % 0 mm
12:02 -10.7 °C -11.4 °C 34923.2 hPa NNE 7.7 km/h 10.3 km/h 92 % 0 mm
12:07 -10.7 °C -11.4 °C 34923.2 hPa NNW 2.6 km/h 15.6 km/h 92 % 0 mm
12:12 -10.7 °C -11.4 °C 34923.2 hPa WNW 5.1 km/h 15.6 km/h 92 % 0 mm
12:17 -10.7 °C -11.4 °C 34923.2 hPa NNE 12.9 km/h 23.3 km/h 92 % 0 mm
12:22 -10.7 °C -11.4 °C 34923.2 hPa NE 10.3 km/h 23.3 km/h 92 % 0 mm
12:27 -10.7 °C -11.4 °C 34933.4 hPa North 12.9 km/h 20.8 km/h 92 % 0 mm
12:32 -10.7 °C -11.4 °C 34933.4 hPa NNW 5.1 km/h 20.8 km/h 92 % 0 mm
12:42 -10.6 °C -11.3 °C 34933.4 hPa NNE 5.1 km/h 18.2 km/h 92 % 0 mm
12:47 -10.6 °C -11.3 °C 34923.2 hPa Calm   15.6 km/h 92 % 0 mm
12:52 -10.6 °C -11.3 °C 34923.2 hPa WNW 2.6 km/h 15.6 km/h 92 % 0 mm
12:57 -10.6 °C -11.3 °C 34933.4 hPa WNW 5.1 km/h 12.9 km/h 92 % 0 mm
13:02 -10.6 °C -11.2 °C 34923.2 hPa WNW 7.7 km/h 12.9 km/h 93 % 0 mm
13:07 -10.5 °C -11.1 °C 34933.4 hPa WNW 2.6 km/h 12.9 km/h 93 % 0 mm
13:12 -10.5 °C -11.2 °C 34933.4 hPa West 2.6 km/h 12.9 km/h 92 % 0 mm
13:17 -10.4 °C -11.2 °C 34933.4 hPa NW 5.1 km/h 10.3 km/h 92 % 0 mm
13:22 -10.3 °C -11.1 °C 34933.4 hPa NW 5.1 km/h 10.3 km/h 92 % 0 mm
13:27 -10.3 °C -11.1 °C 34933.4 hPa NW 12.9 km/h 15.6 km/h 92 % 0 mm
13:32 -10.4 °C -11.1 °C 34946.9 hPa NNW 2.6 km/h 15.6 km/h 92 % 0 mm
13:37 -10.4 °C -11.1 °C 34933.4 hPa NW 2.6 km/h 18.2 km/h 92 % 0 mm
13:42 -10.3 °C -11.1 °C 34933.4 hPa NNE 10.3 km/h 18.2 km/h 92 % 0 mm
13:52 -10.3 °C -11.1 °C 34933.4 hPa NNW 5.1 km/h 28.5 km/h 92 % 0 mm
14:02 -10.3 °C -11 °C 34933.4 hPa NNW 10.3 km/h 33.6 km/h 92 % 0 mm
14:12 -10.3 °C -11 °C 34933.4 hPa NNW 7.7 km/h 28.5 km/h 92 % 0 mm
14:22 -10.3 °C -11 °C 34933.4 hPa NNE 10.3 km/h 20.8 km/h 92 % 0 mm
14:32 -10.3 °C -11.1 °C 34933.4 hPa NNE 5.1 km/h 28.5 km/h 92 % 0 mm
14:42 -10.3 °C -11.1 °C 34933.4 hPa North 18.2 km/h 28.5 km/h 92 % 0 mm
14:52 -10.2 °C -10.9 °C 34933.4 hPa North 20.8 km/h 20.8 km/h 92 % 0 mm
15:02 -10.2 °C -10.9 °C 34933.4 hPa North 12.9 km/h 23.3 km/h 91 % 0 mm
15:07 -10.2 °C -10.9 °C 34933.4 hPa North 7.7 km/h 31.1 km/h 91 % 0 mm
15:12 -10.2 °C -10.9 °C 34933.4 hPa North 12.9 km/h 31.1 km/h 91 % 0 mm
15:22 -10.1 °C -10.8 °C 34933.4 hPa North 7.7 km/h 31.1 km/h 92 % 0 mm
15:32 -10.1 °C -10.8 °C 34933.4 hPa NNE 12.9 km/h 25.9 km/h 92 % 0 mm
15:37 -10.1 °C -10.8 °C 34933.4 hPa North 10.3 km/h 28.5 km/h 92 % 0 mm
15:42 -10.1 °C -10.8 °C 34933.4 hPa North 12.9 km/h 28.5 km/h 92 % 0 mm
15:47 -10.1 °C -10.8 °C 34933.4 hPa NNW 7.7 km/h 33.6 km/h 92 % 0 mm
15:52 -10.2 °C -11 °C 34933.4 hPa NNE 15.6 km/h 33.6 km/h 91 % 0 mm
15:57 -10.2 °C -11 °C 34933.4 hPa NNW 7.7 km/h 38.8 km/h 91 % 0 mm
16:02 -10.2 °C -11.1 °C 34933.4 hPa North 15.6 km/h 38.8 km/h 90 % 0 mm
16:12 -10.2 °C -11.1 °C 34946.9 hPa North 5.1 km/h 38.8 km/h 90 % 0 mm
16:17 -10.2 °C -11.2 °C 34946.9 hPa ENE 2.6 km/h 31.1 km/h 89 % 0 mm
16:22 -10.2 °C -11.2 °C 34946.9 hPa North 7.7 km/h 31.1 km/h 89 % 0 mm
16:27 -10.2 °C -11.2 °C 34946.9 hPa NE 5.1 km/h 25.9 km/h 89 % 0 mm
16:32 -10.2 °C -11.2 °C 34946.9 hPa North 10.3 km/h 25.9 km/h 89 % 0 mm
16:37 -10.1 °C -11.1 °C 34946.9 hPa NE 7.7 km/h 23.3 km/h 89 % 0 mm
16:42 -10.1 °C -11.2 °C 34946.9 hPa NE 5.1 km/h 23.3 km/h 88 % 0 mm
16:47 -10.1 °C -11.3 °C 34946.9 hPa NE 10.3 km/h 20.8 km/h 87 % 0 mm
16:52 -10.1 °C -11.2 °C 34946.9 hPa North 7.7 km/h 20.8 km/h 87 % 0 mm
16:57 -10.1 °C -11.4 °C 34946.9 hPa NE 12.9 km/h 25.9 km/h 86 % 0 mm
17:12 -10.1 °C -11.4 °C 34946.9 hPa NNE 7.7 km/h 20.8 km/h 86 % 0 mm
17:17 -10.1 °C -11.4 °C 34946.9 hPa NE 7.7 km/h 18.2 km/h 85 % 0 mm
17:22 -10 °C -11.4 °C 34946.9 hPa ENE 5.1 km/h 18.2 km/h 85 % 0 mm
17:27 -10 °C -11.5 °C 34946.9 hPa North 5.1 km/h 18.2 km/h 84 % 0 mm
17:32 -10 °C -11.5 °C 34946.9 hPa NE 5.1 km/h 18.2 km/h 84 % 0 mm
17:37 -10 °C -11.5 °C 34946.9 hPa North 7.7 km/h 18.2 km/h 84 % 0 mm
17:42 -10 °C -11.5 °C 34946.9 hPa North 5.1 km/h 18.2 km/h 84 % 0 mm
17:47 -10.1 °C -11.4 °C 34946.9 hPa NE 5.1 km/h 12.9 km/h 85 % 0 mm
17:52 -10.1 °C -11.4 °C 34946.9 hPa North 10.3 km/h 12.9 km/h 85 % 0 mm
17:57 -10.1 °C -11.5 °C 34946.9 hPa Calm   12.9 km/h 85 % 0 mm
18:02 -10.1 °C -11.5 °C 34946.9 hPa North 5.1 km/h 12.9 km/h 85 % 0 mm
18:12 -10.2 °C -11.6 °C 34946.9 hPa NE 2.6 km/h 12.9 km/h 85 % 0 mm
18:17 -10.2 °C -11.6 °C 34957.1 hPa Calm   7.7 km/h 85 % 0 mm
18:22 -10.2 °C -11.6 °C 34957.1 hPa Calm   7.7 km/h 85 % 0 mm
18:27 -10.2 °C -11.6 °C 34957.1 hPa Calm   7.7 km/h 85 % 0 mm
18:32 -10.3 °C -11.7 °C 34957.1 hPa Calm   2.6 km/h 85 % 0 mm
18:37 -10.5 °C -11.8 °C 34957.1 hPa Calm   2.6 km/h 86 % 0 mm
18:42 -10.7 °C -11.9 °C 34957.1 hPa Calm   2.6 km/h 87 % 0 mm
18:47 -10.9 °C -11.9 °C 34957.1 hPa WNW 2.6 km/h 2.6 km/h 88 % 0 mm
18:52 -11.1 °C -12.1 °C 34957.1 hPa Calm   2.6 km/h 89 % 0 mm
19:02 -11.2 °C -12 °C 34957.1 hPa West 2.6 km/h 5.1 km/h 91 % 0 mm
19:12 -11.3 °C -12.1 °C 34957.1 hPa Calm   2.6 km/h 92 % 0 mm
19:17 -11.3 °C -12.1 °C 34967.2 hPa WNW 2.6 km/h 2.6 km/h 92 % 0 mm
19:22 -11.4 °C -12.2 °C 34967.2 hPa Calm   2.6 km/h 92 % 0 mm
19:27 -11.4 °C -12.1 °C 34967.2 hPa Calm   2.6 km/h 93 % 0 mm
19:32 -11.4 °C -12.1 °C 34967.2 hPa NNW 2.6 km/h 2.6 km/h 93 % 0 mm
19:42 -11.3 °C -12.1 °C 34980.8 hPa Calm   7.7 km/h 92 % 0 mm
19:47 -11.4 °C -12.2 °C 34980.8 hPa NNW 2.6 km/h 7.7 km/h 92 % 0 mm
19:52 -11.5 °C -12.2 °C 34980.8 hPa NNE 2.6 km/h 7.7 km/h 92 % 0 mm
19:57 -11.6 °C -12.3 °C 34980.8 hPa North 5.1 km/h 15.6 km/h 92 % 0 mm
20:02 -11.6 °C -12.3 °C 34980.8 hPa NE 5.1 km/h 15.6 km/h 91 % 0 mm
20:07 -11.6 °C -12.4 °C 34980.8 hPa North 5.1 km/h 18.2 km/h 90 % 0 mm
20:12 -11.6 °C -12.5 °C 34990.9 hPa NNE 5.1 km/h 18.2 km/h 89 % 0 mm
20:17 -11.6 °C -12.6 °C 34990.9 hPa NNE 2.6 km/h 18.2 km/h 89 % 0 mm
20:22 -11.6 °C -12.7 °C 34990.9 hPa NNW 7.7 km/h 18.2 km/h 88 % 0 mm
20:27 -11.6 °C -12.7 °C 34990.9 hPa NE 2.6 km/h 12.9 km/h 88 % 0 mm
20:32 -11.7 °C -12.7 °C 34990.9 hPa NNE 5.1 km/h 12.9 km/h 88 % 0 mm
20:42 -11.8 °C -12.7 °C 35001.1 hPa Calm   12.9 km/h 89 % 0 mm
20:47 -11.8 °C -12.7 °C 35001.1 hPa NE 5.1 km/h 10.3 km/h 89 % 0 mm
20:52 -11.8 °C -12.9 °C 35001.1 hPa NNW 2.6 km/h 10.3 km/h 88 % 0 mm
20:57 -11.9 °C -12.8 °C 35001.1 hPa Calm   10.3 km/h 89 % 0 mm
21:02 -11.9 °C -12.9 °C 35001.1 hPa North 2.6 km/h 10.3 km/h 89 % 0 mm
21:12 -12.1 °C -13.1 °C 35001.1 hPa NNW 2.6 km/h 10.3 km/h 89 % 0 mm
21:22 -12.2 °C -13.2 °C 35001.1 hPa Calm   10.3 km/h 89 % 0 mm
21:27 -12.3 °C -13.2 °C 35014.6 hPa North 2.6 km/h 10.3 km/h 89 % 0 mm
21:32 -12.3 °C -13.2 °C 35001.1 hPa Calm   10.3 km/h 90 % 0 mm
21:42 -12.4 °C -13.3 °C 35014.6 hPa North 2.6 km/h 10.3 km/h 90 % 0 mm
21:52 -12.5 °C -13.4 °C 35014.6 hPa NNE 5.1 km/h 12.9 km/h 90 % 0 mm
21:57 -12.4 °C -13.3 °C 35014.6 hPa North 10.3 km/h 15.6 km/h 90 % 0 mm
22:02 -12.4 °C -13.3 °C 35014.6 hPa North 2.6 km/h 15.6 km/h 89 % 0 mm
22:12 -12.4 °C -13.3 °C 35014.6 hPa NE 5.1 km/h 15.6 km/h 89 % 0 mm
22:17 -12.4 °C -13.3 °C 35014.6 hPa ENE 5.1 km/h 15.6 km/h 89 % 0 mm
22:22 -12.3 °C -13.4 °C 35014.6 hPa NE 5.1 km/h 15.6 km/h 88 % 0 mm
22:27 -12.4 °C -13.4 °C 35014.6 hPa Calm   20.8 km/h 88 % 0 mm
22:32 -12.4 °C -13.5 °C 35014.6 hPa NNW 5.1 km/h 20.8 km/h 88 % 0 mm
22:37 -12.6 °C -13.6 °C 35014.6 hPa Calm   7.7 km/h 88 % 0 mm
22:42 -12.6 °C -13.6 °C 35014.6 hPa NNW 2.6 km/h 7.7 km/h 88 % 0 mm
22:52 -12.6 °C -13.7 °C 35014.6 hPa Calm   10.3 km/h 88 % 0 mm
22:57 -12.7 °C -13.7 °C 35014.6 hPa Calm   7.7 km/h 88 % 0 mm
23:02 -12.7 °C -13.8 °C 35014.6 hPa Calm   7.7 km/h 88 % 0 mm
23:12 -12.8 °C -13.7 °C 35001.1 hPa Calm   5.1 km/h 89 % 0 mm
23:17 -12.8 °C -13.9 °C 35001.1 hPa Calm   2.6 km/h 88 % 0 mm
23:22 -12.9 °C -13.8 °C 35001.1 hPa Calm   2.6 km/h 89 % 0 mm
23:27 -12.8 °C -13.8 °C 35001.1 hPa Calm   5.1 km/h 89 % 0 mm
23:32 -12.8 °C -13.9 °C 35001.1 hPa NW 2.6 km/h 5.1 km/h 88 % 0 mm
23:37 -12.8 °C -13.9 °C 35001.1 hPa Calm   5.1 km/h 88 % 0 mm
23:42 -12.9 °C -13.9 °C 35001.1 hPa Calm   5.1 km/h 88 % 0 mm
23:47 -12.9 °C -13.9 °C 35001.1 hPa North 2.6 km/h 5.1 km/h 88 % 0 mm
23:52 -12.9 °C -13.9 °C 35001.1 hPa North 2.6 km/h 5.1 km/h 88 % 0 mm
23:57 -13 °C -14.1 °C 35001.1 hPa North 2.6 km/h 5.1 km/h 87 % 0 mm
Meteo18
Compliments of Weather Underground - 4 mb

Script developed by  Jim McMurry - jmcmurry@mwt.net Adapted for the template by  Wim van der Kuil - Leuven-Template.eu

You find our weather info also at:

European Weather Network

Weather Underground

Equipment we use:

Weather-station
Davis Vue

Weather-program
Meteobridge

Weather-server
Raspberry PI 2 B+

Provider
1 and 1

Davis Vue

Meteobridge

Raspberry PI 2 B+

1 and 1